Time;durP1;ratioP1;P1;durP2;ratioP2;P2;SDS_P1;SDS_P2;PMS_P1;PMS_P2;Temp;Humidity;BMP_temperature;BMP_pressure;BME280_temperature;BME280_humidity;BME280_pressure;Samples;Min_cycle;Max_cycle;Signal;HPM_P1;HPM_P2
2022/09/05 00:01:17;;;;;;;0.90;0.80;;;23.30;93.00;;;;;;4904996;29;20068;-25
2022/09/05 00:03:59;;;;;;;2.42;0.88;;;23.30;92.90;;;;;;5035973;28;20017;-25
2022/09/05 00:06:31;;;;;;;1.77;0.90;;;23.30;92.90;;;;;;5035795;28;20026;-25
2022/09/05 00:09:12;;;;;;;0.93;0.82;;;23.30;93.00;;;;;;5035743;28;20022;-25
2022/09/05 00:11:45;;;;;;;0.80;0.80;;;23.30;93.00;;;;;;5035688;28;20030;-25
2022/09/05 00:14:40;;;;;;;2.10;0.75;;;23.30;93.00;;;;;;5035840;28;20052;-25
2022/09/05 00:17:28;;;;;;;2.50;0.80;;;23.30;93.00;;;;;;5036138;28;20022;-25
2022/09/05 00:20:03;;;;;;;0.95;0.85;;;23.30;92.90;;;;;;5035638;28;20029;-25
2022/09/05 00:22:50;;;;;;;1.17;0.82;;;23.30;92.90;;;;;;5035570;28;20029;-25
2022/09/05 00:25:19;;;;;;;1.52;0.82;;;23.20;92.90;;;;;;5035645;28;20025;-25
2022/09/05 00:27:55;;;;;;;2.10;0.90;;;23.30;92.90;;;;;;5035287;28;20026;-26
2022/09/05 00:30:21;;;;;;;1.42;0.80;;;23.20;92.90;;;;;;5035220;28;20152;-25
2022/09/05 00:33:05;;;;;;;2.58;1.10;;;23.20;92.90;;;;;;5035558;28;20018;-25
2022/09/05 00:36:09;;;;;;;1.35;0.90;;;23.20;92.90;;;;;;5035191;28;20021;-25
2022/09/05 00:38:39;;;;;;;1.40;0.90;;;23.20;92.90;;;;;;4991048;28;20046;-25
2022/09/05 00:41:11;;;;;;;1.88;0.90;;;23.20;92.90;;;;;;5035174;28;20542;-25
2022/09/05 00:43:41;;;;;;;1.13;0.98;;;23.20;92.90;;;;;;5035230;28;20147;-26
2022/09/05 00:46:12;;;;;;;1.05;0.90;;;23.20;92.80;;;;;;5035047;28;20049;-25
2022/09/05 00:48:43;;;;;;;1.88;0.90;;;23.20;92.90;;;;;;5034911;28;20104;-25
2022/09/05 00:51:23;;;;;;;1.92;0.90;;;23.20;92.90;;;;;;5034917;28;20497;-25
2022/09/05 00:54:01;;;;;;;0.80;0.77;;;23.20;92.80;;;;;;5034954;28;20036;-25
2022/09/05 00:56:52;;;;;;;1.30;0.80;;;23.20;92.80;;;;;;5034873;28;20029;-25
2022/09/05 00:59:52;;;;;;;1.02;0.90;;;23.20;92.80;;;;;;5034652;28;20030;-26
2022/09/05 01:02:30;;;;;;;4.00;0.90;;;23.20;92.80;;;;;;5034866;28;20022;-25
2022/09/05 01:05:14;;;;;;;2.88;1.00;;;23.20;92.80;;;;;;5034667;28;20043;-25
2022/09/05 01:07:39;;;;;;;1.97;1.00;;;23.20;92.80;;;;;;5034659;28;20021;-25
2022/09/05 01:10:50;;;;;;;2.10;0.80;;;23.20;92.80;;;;;;5033291;28;20330;-25
2022/09/05 01:13:29;;;;;;;1.10;0.80;;;23.20;92.80;;;;;;5004129;28;20033;-25
2022/09/05 01:16:32;;;;;;;1.38;0.90;;;23.20;92.80;;;;;;5034337;28;20045;-25
2022/09/05 01:19:25;;;;;;;1.98;0.75;;;23.10;92.80;;;;;;5034229;28;20022;-25
2022/09/05 01:21:57;;;;;;;2.35;0.80;;;23.10;92.80;;;;;;5034409;28;20088;-26
2022/09/05 01:24:39;;;;;;;1.25;0.90;;;23.10;92.80;;;;;;5034310;28;20029;-25
2022/09/05 01:27:29;;;;;;;1.75;1.00;;;23.10;92.80;;;;;;5034398;28;20041;-26
2022/09/05 01:30:08;;;;;;;1.17;0.80;;;23.10;92.80;;;;;;5034157;28;20029;-25
2022/09/05 01:33:06;;;;;;;2.47;1.10;;;23.10;92.80;;;;;;5034212;28;20108;-25
2022/09/05 01:36:09;;;;;;;1.00;0.80;;;23.10;92.70;;;;;;5034103;28;20467;-25
2022/09/05 01:38:49;;;;;;;1.15;0.80;;;23.10;92.70;;;;;;5033960;28;20061;-25
2022/09/05 01:41:42;;;;;;;1.20;1.05;;;23.10;92.70;;;;;;5034073;28;20544;-26
2022/09/05 01:44:37;;;;;;;1.10;0.95;;;23.10;92.70;;;;;;5034008;28;20112;-25
2022/09/05 01:47:06;;;;;;;;;;;23.10;92.80;;;;;;5034312;28;20022;-26
2022/09/05 01:49:56;;;;;;;1.75;0.98;;;23.00;92.70;;;;;;5033841;28;19905;-25
2022/09/05 01:52:51;;;;;;;0.88;0.70;;;23.10;92.80;;;;;;5033993;28;20038;-25
2022/09/05 01:55:29;;;;;;;1.13;0.80;;;23.10;92.70;;;;;;5033595;28;20037;-25
2022/09/05 01:58:01;;;;;;;4.80;1.20;;;23.00;92.70;;;;;;5033736;28;20363;-25
2022/09/05 02:00:54;;;;;;;1.08;0.90;;;23.00;92.70;;;;;;5033741;28;20031;-25
2022/09/05 02:03:41;;;;;;;1.65;0.80;;;23.00;92.70;;;;;;5033717;28;20100;-25
2022/09/05 02:06:34;;;;;;;1.90;0.93;;;23.00;92.70;;;;;;5033568;28;20382;-25
2022/09/05 02:09:25;;;;;;;2.10;1.00;;;23.00;92.70;;;;;;5033459;28;20037;-25
2022/09/05 02:12:00;;;;;;;2.15;0.90;;;23.00;92.70;;;;;;5033474;28;20037;-25
2022/09/05 02:14:44;;;;;;;1.63;1.00;;;23.00;92.70;;;;;;5033447;28;20022;-26
2022/09/05 02:17:28;;;;;;;1.05;0.95;;;23.00;92.60;;;;;;5033447;28;20017;-25
2022/09/05 02:20:18;;;;;;;1.27;1.03;;;23.00;92.60;;;;;;5033310;28;20029;-25
2022/09/05 02:22:56;;;;;;;1.10;1.00;;;23.00;92.70;;;;;;5033103;28;20029;-25
2022/09/05 02:25:49;;;;;;;0.90;0.80;;;23.00;92.60;;;;;;5033339;28;20536;-25
2022/09/05 02:28:23;;;;;;;1.40;0.90;;;23.00;92.60;;;;;;4992388;28;20430;-25
2022/09/05 02:30:55;;;;;;;1.00;0.88;;;23.00;92.60;;;;;;5032919;28;20037;-25
2022/09/05 02:33:31;;;;;;;2.55;1.00;;;23.00;92.60;;;;;;5033085;28;20438;-25
2022/09/05 02:36:30;;;;;;;1.45;0.90;;;22.90;92.60;;;;;;5033042;28;20048;-25
2022/09/05 02:39:28;;;;;;;1.75;0.90;;;22.90;92.60;;;;;;5032767;28;20026;-25
2022/09/05 02:42:01;;;;;;;1.00;0.90;;;22.90;92.50;;;;;;5018762;28;20175;-26
2022/09/05 02:45:08;;;;;;;1.50;1.00;;;22.90;92.60;;;;;;5032830;28;20578;-26
2022/09/05 02:47:41;;;;;;;2.60;0.98;;;22.90;92.50;;;;;;5003698;28;20041;-25
2022/09/05 02:50:33;;;;;;;1.17;0.90;;;22.90;92.50;;;;;;5032687;28;20383;-25
2022/09/05 02:52:59;;;;;;;1.85;1.17;;;22.90;92.90;;;;;;5032809;28;20032;-25
2022/09/05 02:55:47;;;;;;;2.90;0.90;;;22.90;92.50;;;;;;5032556;28;20034;-25
2022/09/05 02:58:34;;;;;;;1.67;0.90;;;22.90;92.50;;;;;;5032548;28;20486;-25
2022/09/05 03:01:13;;;;;;;1.40;1.20;;;22.90;92.50;;;;;;5032544;28;20025;-26
2022/09/05 03:03:49;;;;;;;1.23;0.98;;;22.90;92.50;;;;;;5032613;28;20367;-26
2022/09/05 03:06:40;;;;;;;2.10;1.20;;;22.90;92.50;;;;;;5032364;28;20463;-26
2022/09/05 03:09:18;;;;;;;1.33;0.98;;;22.90;92.50;;;;;;5032393;28;20068;-25
2022/09/05 03:12:05;;;;;;;0.80;0.80;;;22.90;92.50;;;;;;5032328;28;20040;-25
2022/09/05 03:14:39;;;;;;;1.20;1.00;;;22.90;92.50;;;;;;5032239;28;20053;-25
2022/09/05 03:17:08;;;;;;;1.13;0.90;;;22.90;92.50;;;;;;5032290;28;20021;-25
2022/09/05 03:20:03;;;;;;;1.35;1.00;;;22.90;92.50;;;;;;5032098;28;20491;-25
2022/09/05 03:22:37;;;;;;;;;;;22.90;92.50;;;;;;5015628;28;20037;-25
2022/09/05 03:25:47;;;;;;;1.15;1.05;;;22.80;92.40;;;;;;5032052;28;19905;-25
2022/09/05 03:28:37;;;;;;;2.53;0.90;;;22.80;92.50;;;;;;4951737;29;20599;-25
2022/09/05 03:31:30;;;;;;;3.53;1.10;;;22.80;92.40;;;;;;5018006;28;20041;-25
2022/09/05 03:34:31;;;;;;;2.63;1.13;;;22.80;92.40;;;;;;5031690;28;20025;-25
2022/09/05 03:37:18;;;;;;;2.25;0.90;;;22.80;92.40;;;;;;5032076;28;20022;-25
2022/09/05 03:40:12;;;;;;;1.15;1.05;;;22.80;92.40;;;;;;5031822;28;20482;-25
2022/09/05 03:43:07;;;;;;;1.92;1.05;;;22.80;92.40;;;;;;5032067;28;20471;-25
2022/09/05 03:45:52;;;;;;;1.00;0.90;;;22.80;92.40;;;;;;5031823;28;20025;-25
2022/09/05 03:48:30;;;;;;;3.20;1.10;;;22.80;92.40;;;;;;5032009;28;20450;-25
2022/09/05 03:51:01;;;;;;;3.75;0.90;;;22.80;92.40;;;;;;5032077;28;20022;-25
2022/09/05 03:53:32;;;;;;;1.73;1.20;;;22.80;92.40;;;;;;5032022;28;20025;-26
2022/09/05 03:56:17;;;;;;;1.20;1.00;;;22.80;92.40;;;;;;5031604;28;20371;-25
2022/09/05 03:58:54;;;;;;;1.58;1.00;;;22.80;92.40;;;;;;5031592;28;20029;-25
2022/09/05 04:01:37;;;;;;;1.27;0.98;;;22.80;92.40;;;;;;5031743;28;20021;-25
2022/09/05 04:04:29;;;;;;;1.40;1.00;;;22.80;92.40;;;;;;5031837;28;20032;-25
2022/09/05 04:07:02;;;;;;;1.58;0.90;;;22.80;92.40;;;;;;5032108;28;20018;-25
2022/09/05 04:09:39;;;;;;;2.88;1.00;;;22.70;92.40;;;;;;5031898;28;20480;-25
2022/09/05 04:12:26;;;;;;;1.60;1.10;;;22.70;92.40;;;;;;5014001;28;20071;-26
2022/09/05 04:15:00;;;;;;;2.38;0.93;;;22.70;92.30;;;;;;5031490;28;20449;-25
2022/09/05 04:17:49;;;;;;;3.03;1.00;;;22.70;92.70;;;;;;5031887;28;20034;-25
2022/09/05 04:20:35;;;;;;;1.98;1.00;;;22.70;92.40;;;;;;5013700;28;20076;-26
2022/09/05 04:23:26;;;;;;;1.05;0.80;;;22.70;92.40;;;;;;5031726;28;20058;-25
2022/09/05 04:26:09;;;;;;;1.10;0.90;;;22.70;92.40;;;;;;5031854;28;20105;-25
2022/09/05 04:28:53;;;;;;;1.38;1.00;;;22.70;92.40;;;;;;5031439;28;20091;-25
2022/09/05 04:31:29;;;;;;;1.63;1.10;;;22.70;92.30;;;;;;5031485;28;20033;-25
2022/09/05 04:34:19;;;;;;;1.65;0.90;;;22.60;92.30;;;;;;5031473;28;20049;-25
2022/09/05 04:36:57;;;;;;;1.90;1.17;;;22.70;92.40;;;;;;5031508;28;20026;-25
2022/09/05 04:39:26;;;;;;;1.25;1.05;;;22.70;92.30;;;;;;5031222;28;20025;-25
2022/09/05 04:42:04;;;;;;;1.23;1.02;;;22.60;92.30;;;;;;5031388;28;20382;-25
2022/09/05 04:44:48;;;;;;;1.30;0.95;;;22.60;92.30;;;;;;5032416;28;20041;-25
2022/09/05 04:47:26;;;;;;;1.95;1.17;;;22.60;92.30;;;;;;5035232;28;20386;-25
2022/09/05 04:49:52;;;;;;;1.30;1.20;;;22.60;92.30;;;;;;5034883;28;20030;-25
2022/09/05 04:53:09;;;;;;;1.27;1.17;;;22.70;92.30;;;;;;5034893;28;20029;-25
2022/09/05 04:55:54;;;;;;;2.08;1.05;;;22.60;92.30;;;;;;5030132;28;20508;-26
2022/09/05 04:58:39;;;;;;;1.70;1.05;;;22.60;92.30;;;;;;5034800;28;20076;-26
2022/09/05 05:01:26;;;;;;;1.77;1.20;;;22.60;92.30;;;;;;5016891;28;20521;-25
2022/09/05 05:03:52;;;;;;;2.55;1.20;;;22.60;92.40;;;;;;5034851;28;20030;-25
2022/09/05 05:06:31;;;;;;;1.63;1.10;;;22.60;92.30;;;;;;5034779;28;20025;-25
2022/09/05 05:09:21;;;;;;;1.92;1.25;;;22.60;92.30;;;;;;5034564;28;20117;-25
2022/09/05 05:11:56;;;;;;;1.30;1.20;;;22.60;92.30;;;;;;5033929;28;20442;-25
2022/09/05 05:14:47;;;;;;;1.60;1.20;;;22.60;92.30;;;;;;5034572;28;20030;-25
2022/09/05 05:17:54;;;;;;;1.30;1.20;;;22.60;92.40;;;;;;5034542;28;20061;-25
2022/09/05 05:20:31;;;;;;;1.98;1.10;;;22.50;92.40;;;;;;4984736;28;20041;-25
2022/09/05 05:23:09;;;;;;;2.17;1.20;;;22.50;92.40;;;;;;5034483;28;20035;-25
2022/09/05 05:25:50;;;;;;;2.38;1.02;;;22.50;92.40;;;;;;5034375;28;20017;-25
2022/09/05 05:28:19;;;;;;;2.10;1.10;;;22.50;92.40;;;;;;5034464;28;20033;-25
2022/09/05 05:30:44;;;;;;;1.08;0.98;;;22.50;92.40;;;;;;5034177;28;20049;-25
2022/09/05 05:33:23;;;;;;;2.45;1.20;;;22.50;92.40;;;;;;5034366;28;20114;-25
2022/09/05 05:35:50;;;;;;;2.03;1.10;;;22.40;92.40;;;;;;5034669;28;20436;-25
2022/09/05 05:38:16;;;;;;;1.20;1.10;;;22.50;92.40;;;;;;5016137;28;20095;-25
2022/09/05 05:40:54;;;;;;;1.30;1.20;;;22.40;92.40;;;;;;5033980;28;20056;-25
2022/09/05 05:43:29;;;;;;;2.50;1.30;;;22.40;92.40;;;;;;5034088;28;20021;-25
2022/09/05 05:45:59;;;;;;;1.40;1.30;;;22.50;92.40;;;;;;5034014;28;20025;-26
2022/09/05 05:48:41;;;;;;;3.45;1.00;;;22.40;92.40;;;;;;5033895;28;20025;-26
2022/09/05 05:51:25;;;;;;;2.20;1.20;;;22.40;92.40;;;;;;5034122;28;20048;-25
2022/09/05 05:54:23;;;;;;;1.88;1.20;;;22.40;92.40;;;;;;5034167;28;20079;-25
2022/09/05 05:57:17;;;;;;;1.55;1.13;;;22.40;92.40;;;;;;5051184;23;20118;-23
2022/09/05 06:00:06;;;;;;;2.13;1.23;;;22.40;92.30;;;;;;5053988;28;20444;-23
2022/09/05 06:03:03;;;;;;;1.20;1.10;;;22.40;92.40;;;;;;5053750;28;20021;-23
2022/09/05 06:05:46;;;;;;;3.53;1.02;;;22.40;92.40;;;;;;5053582;28;20029;-23
2022/09/05 06:08:36;;;;;;;2.35;1.30;;;22.40;92.40;;;;;;5053592;28;20657;-23
2022/09/05 06:11:26;;;;;;;2.25;1.05;;;22.40;92.40;;;;;;5053539;28;20507;-23
2022/09/05 06:14:22;;;;;;;1.67;1.20;;;22.40;92.40;;;;;;5053474;28;20025;-24
2022/09/05 06:17:20;;;;;;;1.42;1.10;;;22.40;92.40;;;;;;5053467;28;20039;-24
2022/09/05 06:20:00;;;;;;;1.80;1.10;;;22.40;92.40;;;;;;5019533;28;20041;-24
2022/09/05 06:22:53;;;;;;;1.50;1.20;;;22.40;92.40;;;;;;5053346;28;20032;-24
2022/09/05 06:26:00;;;;;;;2.67;1.40;;;22.40;92.80;;;;;;5053191;28;20024;-23
2022/09/05 06:28:31;;;;;;;3.25;0.90;;;22.40;92.40;;;;;;5053509;28;20047;-24
2022/09/05 06:31:25;;;;;;;1.38;1.23;;;22.40;92.40;;;;;;5052894;28;20049;-24
2022/09/05 06:34:12;;;;;;;1.30;1.10;;;22.40;92.50;;;;;;5053163;28;20071;-24
2022/09/05 06:37:00;;;;;;;1.90;1.20;;;22.40;92.50;;;;;;5053143;28;20039;-24
2022/09/05 06:39:40;;;;;;;1.17;1.08;;;22.40;92.50;;;;;;5052702;28;20021;-24
2022/09/05 06:42:22;;;;;;;3.58;1.20;;;22.40;92.50;;;;;;5052887;28;20032;-24
2022/09/05 06:45:00;;;;;;;1.33;1.13;;;22.40;92.50;;;;;;5053020;28;20025;-24
2022/09/05 06:47:27;;;;;;;1.45;0.95;;;22.40;92.50;;;;;;5052657;28;20430;-24
2022/09/05 06:50:20;;;;;;;1.55;1.17;;;22.40;92.50;;;;;;5034689;28;20112;-24
2022/09/05 06:53:22;;;;;;;3.63;1.98;;;22.40;92.50;;;;;;5052786;28;20086;-24
2022/09/05 06:56:04;;;;;;;6.60;1.95;;;22.20;91.70;;;;;;5052329;28;20021;-24
2022/09/05 06:58:58;;;;;;;6.65;1.77;;;21.90;92.20;;;;;;5052386;28;20044;-24
2022/09/05 07:01:29;;;;;;;2.85;1.50;;;21.90;92.30;;;;;;5052560;28;20021;-24
2022/09/05 07:04:28;;;;;;;3.33;1.55;;;22.00;92.30;;;;;;5052620;28;20028;-24
2022/09/05 07:07:05;;;;;;;2.75;1.70;;;22.10;92.20;;;;;;5052500;28;20042;-24
2022/09/05 07:10:03;;;;;;;4.40;1.50;;;22.20;92.10;;;;;;5051631;28;20044;-24
2022/09/05 07:13:15;;;;;;;10.05;1.90;;;22.30;92.10;;;;;;5052217;28;20029;-23
2022/09/05 07:16:01;;;;;;;2.80;1.50;;;22.10;92.40;;;;;;5037528;28;20037;-24
2022/09/05 07:18:34;;;;;;;4.85;1.70;;;22.10;92.50;;;;;;5052172;28;20105;-23
2022/09/05 07:21:16;;;;;;;5.93;1.50;;;22.10;92.50;;;;;;5052112;28;20032;-23
2022/09/05 07:24:05;;;;;;;2.85;1.50;;;22.20;92.50;;;;;;5052218;28;20020;-24
2022/09/05 07:26:34;;;;;;;5.07;1.55;;;22.30;92.40;;;;;;5052107;28;20079;-24
2022/09/05 07:29:06;;;;;;;2.17;1.42;;;22.30;92.40;;;;;;5052127;28;20025;-24
2022/09/05 07:31:37;;;;;;;3.13;1.48;;;22.30;92.40;;;;;;5052073;28;20025;-23
2022/09/05 07:34:18;;;;;;;2.55;1.40;;;22.40;92.40;;;;;;5034466;28;20029;-24
2022/09/05 07:36:54;;;;;;;4.10;1.60;;;22.40;92.30;;;;;;5051928;28;20033;-23
2022/09/05 07:39:25;;;;;;;5.60;1.40;;;22.40;92.30;;;;;;5051920;28;20193;-23
2022/09/05 07:41:56;;;;;;;4.03;1.50;;;22.40;92.30;;;;;;5051755;28;20120;-24
2022/09/05 07:44:35;;;;;;;3.17;1.30;;;22.50;92.40;;;;;;5051924;28;20489;-23
2022/09/05 07:47:07;;;;;;;4.22;1.35;;;22.50;92.70;;;;;;5051826;28;20021;-23
2022/09/05 07:49:37;;;;;;;2.13;1.30;;;22.50;92.30;;;;;;5051806;28;20021;-24
2022/09/05 07:52:19;;;;;;;2.30;1.15;;;22.60;92.30;;;;;;5051680;28;20028;-24
2022/09/05 07:54:47;;;;;;;3.75;1.52;;;22.60;92.30;;;;;;5051841;28;20032;-24
2022/09/05 07:57:30;;;;;;;2.00;1.33;;;22.60;92.20;;;;;;5051832;28;20068;-23
2022/09/05 08:00:02;;;;;;;4.97;1.30;;;22.60;92.20;;;;;;5051621;28;20033;-23
2022/09/05 08:02:28;;;;;;;3.65;1.33;;;22.70;92.20;;;;;;5051671;28;20030;-23
2022/09/05 08:05:01;;;;;;;2.22;1.20;;;22.70;92.20;;;;;;5051740;28;20037;-24
2022/09/05 08:07:36;;;;;;;2.90;1.10;;;22.70;92.50;;;;;;5051699;28;20408;-24
2022/09/05 08:10:13;;;;;;;2.78;1.23;;;22.70;92.20;;;;;;5051518;28;20044;-24
2022/09/05 08:13:09;;;;;;;1.90;1.20;;;22.70;92.20;;;;;;5051745;28;20424;-24
2022/09/05 08:15:37;;;;;;;2.83;1.30;;;22.80;92.20;;;;;;5050354;28;20029;-24
2022/09/05 08:18:22;;;;;;;2.55;1.20;;;22.80;92.20;;;;;;5051500;28;20072;-23
2022/09/05 08:20:57;;;;;;;1.85;1.10;;;22.80;92.10;;;;;;5054945;28;20117;-24
2022/09/05 08:23:34;;;;;;;1.77;1.20;;;22.80;92.10;;;;;;5055560;28;20401;-24
2022/09/05 08:26:12;;;;;;;1.70;1.17;;;22.80;92.50;;;;;;5055989;28;20406;-23
2022/09/05 08:28:41;;;;;;;1.83;1.13;;;22.80;92.20;;;;;;5055466;28;20029;-24
2022/09/05 08:31:24;;;;;;;1.80;1.30;;;22.80;92.20;;;;;;5055395;28;20021;-24
2022/09/05 08:33:55;;;;;;;1.42;1.20;;;22.90;92.20;;;;;;5055285;28;20116;-23
2022/09/05 08:36:21;;;;;;;1.35;1.17;;;22.90;92.20;;;;;;5055349;28;20075;-23
2022/09/05 08:38:48;;;;;;;1.63;1.10;;;22.90;92.20;;;;;;5055214;28;20025;-24
2022/09/05 08:41:22;;;;;;;1.67;1.20;;;22.90;92.20;;;;;;5055444;28;20017;-24
2022/09/05 08:44:16;;;;;;;2.03;1.00;;;22.90;92.20;;;;;;5055366;28;20025;-23
2022/09/05 08:46:41;;;;;;;3.40;1.35;;;22.90;92.20;;;;;;5055180;28;20071;-23
2022/09/05 08:49:29;;;;;;;1.63;1.20;;;23.00;92.20;;;;;;5054975;28;20025;-23
2022/09/05 08:52:11;;;;;;;3.05;1.27;;;23.00;92.20;;;;;;5055024;28;20032;-24
2022/09/05 08:55:18;;;;;;;2.65;1.40;;;23.10;91.90;;;;;;5054878;28;20524;-24
2022/09/05 08:58:11;;;;;;;3.13;1.40;;;23.20;91.90;;;;;;5021309;28;20064;-24
2022/09/05 09:00:50;;;;;;;2.78;1.33;;;23.40;91.90;;;;;;5055655;28;20025;-24
2022/09/05 09:03:42;;;;;;;2.63;1.58;;;23.50;91.80;;;;;;5060108;28;20036;-24
2022/09/05 09:06:19;;;;;;;2.10;1.40;;;23.60;91.70;;;;;;5033146;28;20041;-24
2022/09/05 09:09:02;;;;;;;2.55;1.40;;;23.60;91.60;;;;;;5054728;28;20017;-23
2022/09/05 09:11:37;;;;;;;2.85;1.10;;;23.70;91.60;;;;;;5054747;28;20032;-24
2022/09/05 09:14:42;;;;;;;1.55;1.25;;;23.70;91.60;;;;;;5054653;28;20098;-24
2022/09/05 09:17:27;;;;;;;3.50;1.30;;;23.80;91.50;;;;;;5054171;28;20043;-24
2022/09/05 09:20:06;;;;;;;1.70;1.40;;;23.80;91.50;;;;;;5054417;28;20029;-24
2022/09/05 09:22:49;;;;;;;2.63;1.40;;;23.80;91.50;;;;;;5054618;28;20063;-24
2022/09/05 09:25:22;;;;;;;3.40;1.50;;;23.80;91.50;;;;;;5054402;28;20521;-24
2022/09/05 09:28:25;;;;;;;2.42;1.10;;;23.90;91.40;;;;;;5054263;28;20036;-24
2022/09/05 09:31:19;;;;;;;1.90;1.52;;;23.90;91.40;;;;;;5053192;28;20025;-24
2022/09/05 09:33:58;;;;;;;1.30;1.20;;;23.90;91.40;;;;;;5054355;28;20025;-24
2022/09/05 09:37:01;;;;;;;1.17;1.00;;;23.90;91.40;;;;;;5054041;28;20143;-24
2022/09/05 09:39:31;;;;;;;2.25;1.33;;;23.90;91.40;;;;;;5053900;28;20029;-24
2022/09/05 09:42:34;;;;;;;1.55;1.10;;;24.00;91.40;;;;;;5054030;28;20537;-24
2022/09/05 09:45:27;;;;;;;2.35;1.48;;;24.00;91.40;;;;;;5054051;28;20025;-24
2022/09/05 09:48:19;;;;;;;1.90;1.17;;;24.00;91.40;;;;;;5053945;28;20370;-24
2022/09/05 09:51:25;;;;;;;1.50;1.10;;;24.00;91.50;;;;;;5053819;28;20028;-24
2022/09/05 09:53:59;;;;;;;;;;;24.00;91.50;;;;;;5054204;28;20389;-24
2022/09/05 09:56:46;;;;;;;2.40;1.10;;;24.00;91.50;;;;;;5053674;28;20007;-24
2022/09/05 09:59:39;;;;;;;2.00;1.17;;;24.00;91.50;;;;;;5053457;28;20059;-24
2022/09/05 10:02:33;;;;;;;1.08;0.88;;;24.00;91.50;;;;;;5053660;28;20044;-24
2022/09/05 10:05:26;;;;;;;1.42;1.10;;;24.00;91.50;;;;;;5053679;28;20096;-24
2022/09/05 10:08:09;;;;;;;3.05;1.20;;;24.10;88.50;;;;;;5053696;28;20115;-23
2022/09/05 10:11:11;;;;;;;3.53;1.40;;;24.10;88.70;;;;;;5053447;28;20031;-24
2022/09/05 10:13:43;;;;;;;4.68;1.33;;;24.10;89.20;;;;;;5053435;28;20389;-24
2022/09/05 10:16:47;;;;;;;1.23;1.08;;;24.20;87.00;;;;;;5053434;28;20025;-24
2022/09/05 10:19:40;;;;;;;1.55;1.20;;;24.20;87.10;;;;;;5053200;28;20028;-24
2022/09/05 10:22:15;;;;;;;4.28;1.33;;;24.20;87.60;;;;;;5053144;28;20032;-24
2022/09/05 10:24:49;;;;;;;5.30;1.38;;;24.20;88.00;;;;;;5053353;28;20028;-23
2022/09/05 10:27:36;;;;;;;2.97;1.20;;;24.30;88.50;;;;;;5053173;28;20150;-24
2022/09/05 10:30:30;;;;;;;1.38;1.25;;;24.20;88.80;;;;;;5053057;28;20021;-24
2022/09/05 10:33:14;;;;;;;2.57;1.17;;;24.20;89.00;;;;;;5053254;28;20028;-24
2022/09/05 10:35:44;;;;;;;2.15;1.20;;;24.20;89.30;;;;;;5053163;28;20053;-23
2022/09/05 10:38:31;;;;;;;1.65;1.20;;;24.20;89.40;;;;;;5052975;28;20116;-24
2022/09/05 10:41:06;;;;;;;2.53;1.42;;;24.20;89.60;;;;;;5052774;28;20017;-23
2022/09/05 10:43:43;;;;;;;2.38;1.10;;;24.20;89.80;;;;;;5052849;28;20021;-24
2022/09/05 10:46:44;;;;;;;1.77;1.13;;;24.20;89.90;;;;;;5052882;28;20026;-24
2022/09/05 10:49:13;;;;;;;2.78;1.17;;;24.20;90.00;;;;;;5052496;28;20036;-24
2022/09/05 10:51:56;;;;;;;2.17;1.40;;;24.20;90.00;;;;;;5052765;28;20453;-23
2022/09/05 10:54:27;;;;;;;1.30;1.10;;;24.20;90.10;;;;;;5053099;28;20025;-24
2022/09/05 10:57:10;;;;;;;1.98;1.10;;;24.20;90.10;;;;;;5052640;28;20033;-24
2022/09/05 10:59:57;;;;;;;1.25;0.95;;;24.20;90.10;;;;;;5052397;28;20534;-23
2022/09/05 11:02:26;;;;;;;1.98;1.00;;;24.30;90.20;;;;;;5052604;28;20558;-24
2022/09/05 11:05:02;;;;;;;2.05;1.02;;;24.20;90.10;;;;;;5052542;28;20021;-24
2022/09/05 11:07:40;;;;;;;1.33;1.00;;;24.20;90.20;;;;;;5052432;28;20371;-24
2022/09/05 11:10:16;;;;;;;2.45;1.00;;;24.30;90.20;;;;;;5052248;28;20104;-24
2022/09/05 11:13:00;;;;;;;1.63;1.10;;;24.20;90.50;;;;;;5052669;28;20426;-23
2022/09/05 11:15:29;;;;;;;3.08;1.10;;;24.30;90.20;;;;;;5052358;28;20100;-24
2022/09/05 11:18:04;;;;;;;2.08;1.10;;;24.30;90.30;;;;;;5052287;28;20048;-24
2022/09/05 11:20:53;;;;;;;3.50;1.20;;;24.30;90.20;;;;;;5052380;28;20474;-24
2022/09/05 11:23:38;;;;;;;1.13;1.00;;;24.20;90.20;;;;;;5052268;28;20471;-24
2022/09/05 11:26:07;;;;;;;1.65;1.00;;;24.30;90.30;;;;;;5052269;28;20025;-24
2022/09/05 11:28:54;;;;;;;1.52;1.10;;;24.20;90.40;;;;;;5052002;28;20078;-24
2022/09/05 11:31:26;;;;;;;1.77;1.08;;;24.20;90.40;;;;;;5051894;28;20032;-24
2022/09/05 11:34:03;;;;;;;1.55;1.00;;;24.20;90.50;;;;;;5052152;28;20071;-24
2022/09/05 11:36:46;;;;;;;1.70;1.20;;;24.20;90.50;;;;;;5052043;28;20544;-24
2022/09/05 11:39:54;;;;;;;1.50;1.05;;;24.20;90.60;;;;;;5051710;28;20043;-24
2022/09/05 11:42:26;;;;;;;1.52;0.90;;;24.20;90.60;;;;;;5052104;28;20029;-24
2022/09/05 11:44:57;;;;;;;1.20;0.88;;;24.10;90.70;;;;;;5052046;28;20025;-24
2022/09/05 11:48:00;;;;;;;1.90;0.98;;;24.00;90.80;;;;;;5051671;28;20033;-24
2022/09/05 11:50:31;;;;;;;1.48;1.10;;;24.00;90.80;;;;;;5033810;28;20097;-24
2022/09/05 11:53:20;;;;;;;1.83;1.10;;;23.90;90.80;;;;;;5051920;28;20486;-24
2022/09/05 11:56:02;;;;;;;1.67;1.00;;;23.90;91.20;;;;;;5051111;28;20025;-24
2022/09/05 11:58:49;;;;;;;1.52;1.00;;;23.90;90.90;;;;;;5052353;28;20028;-24
2022/09/05 12:01:32;;;;;;;1.55;1.05;;;23.90;90.90;;;;;;5051745;28;20104;-24
2022/09/05 12:04:01;;;;;;;1.10;0.90;;;23.90;91.00;;;;;;5051812;28;20021;-23
2022/09/05 12:06:59;;;;;;;1.27;0.90;;;23.80;91.00;;;;;;5051637;28;20013;-24
2022/09/05 12:09:48;;;;;;;1.35;0.85;;;23.80;91.00;;;;;;5008536;28;20029;-23
2022/09/05 12:12:34;;;;;;;1.48;1.00;;;23.80;91.10;;;;;;5051954;28;20441;-23
2022/09/05 12:15:03;;;;;;;1.52;1.10;;;23.80;91.10;;;;;;5033958;28;20509;-23
2022/09/05 12:17:40;;;;;;;1.05;0.80;;;23.70;91.20;;;;;;5051649;28;20029;-40
2022/09/05 12:20:47;;;;;;;1.05;0.90;;;23.80;91.20;;;;;;5051377;28;20021;-23
2022/09/05 12:23:41;;;;;;;1.90;1.10;;;23.80;91.10;;;;;;5052106;28;20037;-23
2022/09/05 12:26:37;;;;;;;1.38;0.82;;;23.80;91.10;;;;;;5051673;28;20017;-23
2022/09/05 12:29:18;;;;;;;1.83;1.00;;;23.80;91.00;;;;;;5055987;28;20033;-23
2022/09/05 12:31:52;;;;;;;1.42;0.85;;;23.80;91.00;;;;;;5052434;28;20032;-24
2022/09/05 12:34:37;;;;;;;1.40;0.95;;;23.90;91.00;;;;;;5051870;28;20021;-24
2022/09/05 12:37:09;;;;;;;1.33;1.00;;;23.90;91.00;;;;;;5051464;28;20091;-23
2022/09/05 12:39:51;;;;;;;1.52;0.98;;;23.90;91.00;;;;;;5051247;28;20053;-24
2022/09/05 12:42:28;;;;;;;1.85;1.08;;;24.00;91.00;;;;;;5051457;28;20475;-24
2022/09/05 12:45:13;;;;;;;1.60;1.00;;;24.00;91.00;;;;;;5051639;28;20359;-24
2022/09/05 12:48:08;;;;;;;2.63;0.80;;;24.10;90.90;;;;;;5034859;28;20108;-24
2022/09/05 12:50:39;;;;;;;1.58;0.90;;;24.20;90.90;;;;;;5044166;28;20044;-23
2022/09/05 12:53:14;;;;;;;1.35;1.00;;;24.20;90.90;;;;;;5051351;28;20021;-23
2022/09/05 12:56:00;;;;;;;1.55;1.00;;;24.20;90.80;;;;;;5051331;28;20107;-24
2022/09/05 12:58:28;;;;;;;2.78;0.95;;;24.20;90.80;;;;;;5051104;28;20548;-23
2022/09/05 13:01:16;;;;;;;1.17;1.00;;;24.30;90.80;;;;;;5051154;28;20033;-23
2022/09/05 13:03:56;;;;;;;0.93;0.80;;;24.30;90.70;;;;;;5051286;28;20025;-24
2022/09/05 13:06:29;;;;;;;1.20;0.90;;;24.30;90.70;;;;;;5051942;28;20486;-24
2022/09/05 13:09:15;;;;;;;1.38;1.20;;;24.30;90.70;;;;;;5054525;28;20120;-24
2022/09/05 13:12:03;;;;;;;1.55;1.00;;;24.30;90.70;;;;;;5054720;28;20043;-24
2022/09/05 13:14:39;;;;;;;1.08;0.80;;;24.40;90.70;;;;;;5055100;28;20032;-24
2022/09/05 13:17:07;;;;;;;0.93;0.82;;;24.40;90.70;;;;;;5054441;28;20474;-24
2022/09/05 13:19:42;;;;;;;3.75;1.00;;;24.40;90.70;;;;;;5054206;28;20116;-23
2022/09/05 13:22:10;;;;;;;0.90;0.82;;;24.40;90.70;;;;;;5054613;28;20193;-23
2022/09/05 13:24:40;;;;;;;1.50;0.90;;;24.40;90.70;;;;;;5054573;28;20107;-24
2022/09/05 13:27:28;;;;;;;0.98;0.80;;;24.40;90.80;;;;;;5054357;28;20021;-23
2022/09/05 13:29:58;;;;;;;1.73;0.90;;;24.40;90.80;;;;;;5036344;28;20052;-24
2022/09/05 13:32:31;;;;;;;1.48;0.90;;;24.30;90.80;;;;;;5054385;28;20051;-23
2022/09/05 13:35:11;;;;;;;1.73;1.00;;;24.30;90.80;;;;;;5054295;28;20490;-23
2022/09/05 13:37:47;;;;;;;1.77;1.20;;;24.30;90.90;;;;;;5054288;28;20029;-23
2022/09/05 13:40:22;;;;;;;1.95;1.00;;;24.30;90.90;;;;;;5053885;28;20035;-23
2022/09/05 13:43:15;;;;;;;0.90;0.80;;;24.30;90.80;;;;;;5054333;28;20389;-23
2022/09/05 13:46:02;;;;;;;1.33;1.00;;;24.40;90.80;;;;;;5054081;28;20025;-24
2022/09/05 13:48:55;;;;;;;1.10;0.98;;;24.40;90.80;;;;;;5053698;28;20079;-24
2022/09/05 13:51:28;;;;;;;0.80;0.70;;;24.40;90.80;;;;;;5054025;28;20482;-24
2022/09/05 13:54:15;;;;;;;0.90;0.80;;;24.40;90.80;;;;;;5053993;28;20036;-23
2022/09/05 13:57:06;;;;;;;1.20;1.00;;;24.50;90.80;;;;;;5053880;28;20405;-24
2022/09/05 13:59:40;;;;;;;1.42;0.90;;;24.50;90.80;;;;;;5053667;28;20517;-23
2022/09/05 14:02:37;;;;;;;1.40;1.00;;;24.50;90.80;;;;;;5053683;28;20029;-23
2022/09/05 14:05:29;;;;;;;1.02;0.80;;;24.50;90.80;;;;;;5053607;28;20058;-24
2022/09/05 14:08:20;;;;;;;1.05;0.90;;;24.50;90.80;;;;;;5053707;28;20017;-24